Winona, Missouri
Current Conditions -  °F | °C
As of 11:53 PM on Thursday 30 Oct 2014 (Local Time) from KUNO Reporting Station
Clear Clear  
Wind Chill: 50°   Ceiling: Unl
Heat Index: 50°   Visibility: 10mi
Dew Point: 42°   Wind: 7mph
Humidity: 74%   Direction: 310°NW
Pressure: 30.05"   Gusts: NA
Location:  37.01°N, 91.32°W
Report Text: KUNO 310453Z AUTO 31006KT 10SM CLR 10/06 A3005 RMK AO2 SLP174 T01000056
Loading
Personal Weather Stations






























Interactive Weather Map
Tropical Storm Tracking
New forecast layout! Learn more

10-Day Weather Forecast

Advertisements
Track Severe Weather on mobile